Time;durP1;ratioP1;P1;durP2;ratioP2;P2;SDS_P1;SDS_P2;PMS_P1;PMS_P2;Temp;Humidity;BMP_temperature;BMP_pressure;BME280_temperature;BME280_humidity;BME280_pressure;Samples;Min_cycle;Max_cycle;Signal;HPM_P1;HPM_P2
2022/09/16 00:01:14;;;;;;;3.65;1.92;;;;;;;17.38;74.24;99049.45;1752265;80;21063;-46
2022/09/16 00:03:41;;;;;;;4.62;2.47;;;;;;;17.36;74.08;99044.86;1752552;80;21110;-46
2022/09/16 00:06:19;;;;;;;4.08;2.17;;;;;;;17.30;74.36;99036.34;1746557;81;21078;-46
2022/09/16 00:08:45;;;;;;;5.00;2.42;;;;;;;17.22;74.66;99039.48;1743865;80;21143;-46
2022/09/16 00:11:13;;;;;;;6.62;2.00;;;;;;;17.19;74.78;99039.88;1747347;80;20984;-46
2022/09/16 00:13:40;;;;;;;3.80;1.80;;;;;;;17.20;74.71;99040.20;1748305;80;21078;-47
2022/09/16 00:16:10;;;;;;;4.28;2.27;;;;;;;17.18;74.79;99040.92;1748038;80;21320;-46
2022/09/16 00:18:37;;;;;;;5.25;2.55;;;;;;;17.15;74.86;99045.30;1749756;80;21104;-46
2022/09/16 00:21:08;;;;;;;4.40;2.42;;;;;;;17.11;75.01;99038.72;1711462;82;21146;-46
2022/09/16 00:23:35;;;;;;;4.60;2.17;;;;;;;17.03;75.08;99030.43;1710288;81;21090;-47
2022/09/16 00:26:02;;;;;;;4.33;2.17;;;;;;;17.01;75.14;99032.95;1714173;82;20998;-47
2022/09/16 00:28:29;;;;;;;4.00;1.90;;;;;;;17.02;75.23;99038.08;1715732;82;21045;-47
2022/09/16 00:31:00;;;;;;;3.90;2.20;;;;;;;17.02;75.20;99032.77;1707305;83;21168;-46
2022/09/16 00:33:27;;;;;;;4.47;2.55;;;;;;;16.98;75.36;99025.37;1714366;82;21146;-47
2022/09/16 00:36:10;;;;;;;4.25;1.82;;;;;;;16.90;75.31;99023.20;1710121;82;21054;-46
2022/09/16 00:38:37;;;;;;;4.92;2.60;;;;;;;16.89;75.37;99024.73;1711793;82;21117;-46
2022/09/16 00:41:05;;;;;;;4.08;2.25;;;;;;;16.93;75.19;99029.14;1706846;82;21604;-47
2022/09/16 00:44:02;;;;;;;5.90;2.25;;;;;;;16.89;74.99;99025.57;1711568;82;21541;-46
2022/09/16 00:46:40;;;;;;;4.78;2.77;;;;;;;16.84;75.00;99037.27;1718922;82;21116;-47
2022/09/16 00:49:17;;;;;;;4.92;2.40;;;;;;;16.74;75.11;99039.43;1708523;82;21682;-47
2022/09/16 00:51:44;;;;;;;3.70;1.92;;;;;;;16.69;75.11;99033.89;1713012;82;20996;-46
2022/09/16 00:54:11;;;;;;;3.98;2.15;;;;;;;16.71;75.08;99041.17;1716208;82;21094;-46
2022/09/16 00:56:39;;;;;;;4.17;2.05;;;;;;;16.72;75.06;99048.11;1707671;82;21019;-46
2022/09/16 00:59:18;;;;;;;4.67;2.60;;;;;;;16.69;75.01;99055.13;1699621;83;21249;-46
2022/09/16 01:01:45;;;;;;;5.33;2.70;;;;;;;16.62;75.15;99064.39;1705918;82;22814;-47
2022/09/16 01:04:25;;;;;;;4.03;2.30;;;;;;;16.57;75.34;99065.99;1704706;82;21148;-46
2022/09/16 01:06:52;;;;;;;4.62;2.37;;;;;;;16.55;75.49;99072.02;1705671;82;21648;-46
2022/09/16 01:09:21;;;;;;;4.65;2.42;;;;;;;16.54;75.33;99077.81;1706642;82;21062;-46
2022/09/16 01:11:47;;;;;;;4.50;2.52;;;;;;;16.54;75.45;99075.16;1712452;82;21083;-46
2022/09/16 01:17:13;;;;;;;5.40;2.77;;;;;;;16.48;75.71;99070.13;1714276;81;21498;-46
2022/09/16 01:20:22;;;;;;;4.55;2.47;;;;;;;16.45;75.86;99065.70;1712750;82;21126;-46
2022/09/16 01:23:35;;;;;;;4.87;2.22;;;;;;;16.44;75.77;99060.07;1710970;82;21003;-46
2022/09/16 01:26:28;;;;;;;4.10;2.30;;;;;;;16.44;75.74;99067.55;1713859;82;22878;-46
2022/09/16 01:29:24;;;;;;;7.20;2.75;;;;;;;16.41;75.86;99069.26;1712009;82;21586;-45
2022/09/16 01:32:20;;;;;;;5.17;2.12;;;;;;;16.36;76.11;99067.69;1717142;82;21037;-46
2022/09/16 01:35:04;;;;;;;4.57;2.03;;;;;;;16.34;76.24;99068.40;1716680;83;21570;-46
2022/09/16 01:37:52;;;;;;;4.50;2.50;;;;;;;16.38;76.17;99074.95;1713507;82;21095;-45
2022/09/16 01:40:27;;;;;;;5.50;2.67;;;;;;;16.37;76.19;99075.14;1711746;82;21224;-46
2022/09/16 01:43:21;;;;;;;4.17;2.20;;;;;;;16.32;76.41;99071.73;1714924;82;21149;-45
2022/09/16 01:46:03;;;;;;;5.85;2.55;;;;;;;16.29;76.58;99070.78;1712715;82;21071;-46
2022/09/16 01:48:41;;;;;;;5.33;2.42;;;;;;;16.30;76.69;99085.70;1711697;82;21093;-46
2022/09/16 01:51:30;;;;;;;4.70;2.62;;;;;;;16.32;76.66;99077.88;1700798;83;21143;-46
2022/09/16 01:54:15;;;;;;;5.47;3.15;;;;;;;16.34;76.71;99076.36;1696006;82;21605;-46
2022/09/16 01:56:55;;;;;;;7.42;3.62;;;;;;;16.31;76.88;99080.72;1699489;83;21130;-45
2022/09/16 01:59:27;;;;;;;6.62;3.25;;;;;;;16.26;77.00;99091.09;1699239;83;21050;-46
2022/09/16 02:02:01;;;;;;;5.10;3.00;;;;;;;16.23;77.13;99075.55;1702744;82;21732;-46
2022/09/16 02:04:35;;;;;;;6.10;2.98;;;;;;;16.25;77.14;99085.45;1708047;83;21008;-46
2022/09/16 02:07:03;;;;;;;6.17;3.58;;;;;;;16.23;77.18;99101.58;1704538;82;21737;-46
2022/09/16 02:09:41;;;;;;;5.17;3.40;;;;;;;16.19;77.37;99084.41;1697255;83;21076;-46
2022/09/16 02:12:12;;;;;;;7.22;3.25;;;;;;;16.13;77.56;99087.30;1696228;83;21102;-46
2022/09/16 02:14:41;;;;;;;9.85;3.40;;;;;;;16.13;77.78;99089.14;1738491;81;21011;-45
2022/09/16 02:17:13;;;;;;;5.70;3.58;;;;;;;16.16;77.90;99088.76;1725235;81;21088;-46
2022/09/16 02:19:50;;;;;;;9.03;4.08;;;;;;;16.19;77.94;99087.54;1745713;80;21810;-45
2022/09/16 02:22:29;;;;;;;8.18;3.85;;;;;;;16.15;78.01;99081.80;1748743;81;21071;-46
2022/09/16 02:24:55;;;;;;;6.33;3.85;;;;;;;16.08;78.30;99080.41;1746908;80;21125;-46
2022/09/16 02:27:21;;;;;;;6.58;3.17;;;;;;;16.07;78.53;99078.78;1746301;81;21112;-45
2022/09/16 02:29:55;;;;;;;6.60;3.95;;;;;;;16.13;78.51;99081.98;1741966;80;21013;-47
2022/09/16 02:32:23;;;;;;;5.42;3.27;;;;;;;16.20;78.47;99071.95;1702427;82;21129;-45
2022/09/16 02:34:50;;;;;;;5.85;3.58;;;;;;;16.24;78.12;99075.84;1740210;80;21058;-46
2022/09/16 02:37:26;;;;;;;7.08;3.83;;;;;;;16.21;78.34;99088.20;1734591;80;21086;-46
2022/09/16 02:39:56;;;;;;;6.08;3.95;;;;;;;16.16;78.42;99086.92;1742957;81;21070;-45
2022/09/16 02:42:23;;;;;;;5.67;3.72;;;;;;;16.13;78.34;99087.81;1739061;80;21066;-46
2022/09/16 02:44:49;;;;;;;6.20;3.80;;;;;;;16.13;78.43;99088.62;1741118;80;22732;-45
2022/09/16 02:47:38;;;;;;;7.28;4.20;;;;;;;16.11;78.45;99091.98;1736162;80;21521;-45
2022/09/16 02:50:40;;;;;;;6.78;4.00;;;;;;;16.10;78.58;99090.32;1703617;82;21561;-46
2022/09/16 02:53:35;;;;;;;6.92;4.30;;;;;;;16.08;78.94;99091.02;1693485;82;22730;-46
2022/09/16 02:56:05;;;;;;;6.70;3.60;;;;;;;16.04;79.00;99086.28;1736041;81;21592;-46
2022/09/16 02:58:31;;;;;;;7.35;3.85;;;;;;;16.03;78.93;99085.98;1696205;83;21219;-46
2022/09/16 03:00:58;;;;;;;10.82;4.60;;;;;;;16.03;78.88;99088.13;1695687;83;21083;-47
2022/09/16 03:03:25;;;;;;;6.17;4.30;;;;;;;16.00;78.90;99083.19;1696108;83;21075;-46
2022/09/16 03:06:16;;;;;;;6.60;4.17;;;;;;;15.94;79.14;99090.09;1699055;82;21109;-46
2022/09/16 03:08:43;;;;;;;5.60;3.60;;;;;;;15.89;79.45;99087.18;1699655;83;21055;-46
2022/09/16 03:11:54;;;;;;;7.28;3.55;;;;;;;15.90;79.49;99093.30;1701692;82;21237;-46
2022/09/16 03:14:55;;;;;;;5.70;3.80;;;;;;;15.89;79.59;99089.02;1683631;83;21109;-46
2022/09/16 03:17:36;;;;;;;7.75;4.35;;;;;;;15.90;79.78;99091.97;1697689;82;21129;-46
2022/09/16 03:20:23;;;;;;;6.05;3.95;;;;;;;15.88;79.93;99092.67;1699849;83;21129;-46
2022/09/16 03:23:36;;;;;;;6.42;3.80;;;;;;;15.83;79.90;99089.25;1697071;83;21090;-47
2022/09/16 03:26:17;;;;;;;6.67;4.20;;;;;;;15.84;79.95;99099.38;1701762;82;21133;-47
2022/09/16 03:29:06;;;;;;;7.45;4.22;;;;;;;15.83;80.07;99094.56;1699885;82;21056;-47
2022/09/16 03:31:59;;;;;;;7.47;4.15;;;;;;;15.79;80.24;99098.09;1701607;82;21082;-46
2022/09/16 03:34:43;;;;;;;5.97;3.95;;;;;;;15.75;80.69;99095.97;1730070;80;21542;-46
2022/09/16 03:37:14;;;;;;;8.70;4.15;;;;;;;15.85;81.10;99089.06;1657459;82;21058;-47
2022/09/16 03:39:41;;;;;;;6.15;3.60;;;;;;;15.96;80.63;99089.90;1688976;82;21926;-46
2022/09/16 03:42:10;;;;;;;6.67;4.20;;;;;;;15.97;80.27;99083.59;1684284;83;21008;-46
2022/09/16 03:44:39;;;;;;;6.92;4.67;;;;;;;16.00;80.42;99083.19;1734888;80;21043;-46
2022/09/16 03:47:09;;;;;;;11.35;4.90;;;;;;;16.01;80.38;99091.99;1736659;80;21043;-46
2022/09/16 03:49:36;;;;;;;9.53;4.47;;;;;;;16.00;79.89;99097.78;1731410;80;21506;-46
2022/09/16 03:52:06;;;;;;;7.40;4.40;;;;;;;15.95;79.53;99096.20;1729185;80;21172;-47
2022/09/16 03:54:34;;;;;;;7.50;4.28;;;;;;;15.90;79.66;99102.09;1737154;81;21435;-47
2022/09/16 03:57:00;;;;;;;6.90;4.28;;;;;;;15.84;79.82;99092.23;1740701;80;21098;-65
2022/09/16 03:59:27;;;;;;;6.45;4.20;;;;;;;15.77;80.20;99101.45;1738791;80;21063;-62
2022/09/16 04:01:55;;;;;;;8.53;4.10;;;;;;;15.70;80.50;99107.16;1701524;82;21659;-62
2022/09/16 04:04:22;;;;;;;7.35;4.40;;;;;;;15.69;80.60;99106.02;1702276;82;21197;-63
2022/09/16 04:06:49;;;;;;;8.28;4.37;;;;;;;15.70;80.67;99108.48;1699159;82;21058;-66
2022/09/16 04:09:16;;;;;;;6.22;4.50;;;;;;;15.72;80.71;99113.09;1711027;82;21050;-65
2022/09/16 04:11:42;;;;;;;7.25;5.03;;;;;;;15.66;80.82;99117.80;1706831;82;21044;-66
2022/09/16 04:14:09;;;;;;;8.88;4.67;;;;;;;15.61;81.02;99124.17;1710261;82;21088;-62
2022/09/16 04:16:36;;;;;;;8.55;4.20;;;;;;;15.56;81.30;99123.91;1719017;82;21111;-63
2022/09/16 04:19:03;;;;;;;7.25;4.45;;;;;;;15.56;81.45;99126.56;1709790;82;21109;-63
2022/09/16 04:21:30;;;;;;;6.58;4.47;;;;;;;15.58;81.51;99128.52;1703264;83;21066;-63
2022/09/16 04:23:56;;;;;;;7.55;4.53;;;;;;;15.58;81.49;99132.50;1739783;80;22346;-64
2022/09/16 04:26:23;;;;;;;7.72;4.20;;;;;;;15.59;81.49;99138.13;1743298;80;21052;-62
2022/09/16 04:28:53;;;;;;;7.87;4.78;;;;;;;15.55;81.55;99128.41;1741484;80;21119;-62
2022/09/16 04:31:20;;;;;;;8.45;4.37;;;;;;;15.52;81.93;99123.47;1739950;80;21110;-62
2022/09/16 04:33:47;;;;;;;5.70;3.90;;;;;;;15.53;81.87;99130.91;1741669;80;21063;-62
2022/09/16 04:36:16;;;;;;;6.53;3.87;;;;;;;15.55;81.67;99136.84;1735982;80;21075;-61
2022/09/16 04:38:44;;;;;;;6.85;4.40;;;;;;;15.56;81.58;99135.84;1699312;82;21140;-61
2022/09/16 04:41:25;;;;;;;7.20;4.60;;;;;;;15.53;81.40;99137.05;1738643;80;21132;-62
2022/09/16 04:43:54;;;;;;;6.55;4.25;;;;;;;15.50;81.58;99130.79;1738124;80;21086;-62
2022/09/16 04:46:22;;;;;;;7.35;3.85;;;;;;;15.45;81.31;99131.84;1745014;80;21584;-61
2022/09/16 04:48:50;;;;;;;7.28;3.92;;;;;;;15.43;81.25;99120.59;1740985;80;21070;-60
2022/09/16 04:51:16;;;;;;;7.22;4.47;;;;;;;15.49;81.36;99112.42;1744941;80;21061;-61
2022/09/16 04:53:43;;;;;;;7.78;4.30;;;;;;;15.58;81.32;99120.56;1742281;80;21803;-62
2022/09/16 04:56:14;;;;;;;7.42;4.00;;;;;;;15.63;80.76;99126.13;1738127;80;21088;-62
2022/09/16 04:58:44;;;;;;;6.72;4.37;;;;;;;15.59;80.19;99146.08;1737465;80;21021;-62
2022/09/16 05:01:13;;;;;;;6.92;3.90;;;;;;;15.51;80.14;99156.78;1738901;80;21012;-61
2022/09/16 05:03:45;;;;;;;6.53;4.40;;;;;;;15.45;80.21;99157.52;1740448;80;21005;-61
2022/09/16 05:06:15;;;;;;;7.50;4.30;;;;;;;15.44;80.38;99158.03;1743882;80;21095;-60
2022/09/16 05:08:42;;;;;;;7.60;4.72;;;;;;;15.45;80.57;99162.81;1738494;80;21111;-60
2022/09/16 05:11:13;;;;;;;6.35;4.25;;;;;;;15.44;80.77;99167.30;1738269;80;21051;-60
2022/09/16 05:13:39;;;;;;;11.38;4.50;;;;;;;15.44;80.94;99167.30;1743313;80;21063;-59
2022/09/16 05:16:11;;;;;;;7.55;4.72;;;;;;;15.44;81.30;99171.80;1744462;82;21111;-59
2022/09/16 05:18:39;;;;;;;6.65;4.28;;;;;;;15.45;81.53;99169.45;1740287;80;21127;-59
2022/09/16 05:21:08;;;;;;;7.62;4.58;;;;;;;15.50;81.18;99165.25;1746285;81;21056;-60
2022/09/16 05:23:35;;;;;;;7.00;4.83;;;;;;;15.52;80.99;99174.35;1745040;80;21617;-60
2022/09/16 05:26:06;;;;;;;7.22;4.55;;;;;;;15.52;80.95;99177.81;1733717;80;21043;-59
2022/09/16 05:28:34;;;;;;;6.47;4.17;;;;;;;15.48;81.04;99176.52;1739304;80;21412;-59
2022/09/16 05:31:14;;;;;;;7.72;4.00;;;;;;;15.51;81.24;99176.16;1741620;80;21132;-60
2022/09/16 05:33:43;;;;;;;8.93;4.53;;;;;;;15.57;80.99;99171.97;1707676;82;21548;-61
2022/09/16 05:36:13;;;;;;;7.42;4.55;;;;;;;15.62;80.94;99173.55;1738888;80;21073;-59
2022/09/16 05:38:40;;;;;;;7.67;4.70;;;;;;;15.65;80.57;99173.67;1701529;82;21003;-60
2022/09/16 05:41:07;;;;;;;9.00;4.55;;;;;;;15.64;80.58;99167.56;1729646;80;21054;-62
2022/09/16 05:43:35;;;;;;;8.90;3.87;;;;;;;15.64;80.53;99170.72;1733202;80;21132;-61
2022/09/16 05:46:02;;;;;;;7.55;4.05;;;;;;;15.66;80.22;99181.95;1741415;81;21124;-60
2022/09/16 05:48:29;;;;;;;5.55;3.75;;;;;;;15.72;80.40;99186.53;1705014;82;21568;-59
2022/09/16 05:51:02;;;;;;;5.62;3.55;;;;;;;15.78;80.05;99191.95;1702086;83;21450;-60
2022/09/16 05:53:30;;;;;;;8.53;4.22;;;;;;;15.79;79.68;99190.11;1697117;82;21074;-60
2022/09/16 05:56:04;;;;;;;7.50;4.40;;;;;;;15.72;79.64;99197.95;1694170;84;21130;-61
2022/09/16 05:58:32;;;;;;;7.72;5.00;;;;;;;15.70;79.96;99199.98;1685840;83;21582;-60
2022/09/16 06:01:04;;;;;;;7.42;5.37;;;;;;;15.75;80.07;99201.59;1694829;83;21376;-61
2022/09/16 06:03:33;;;;;;;7.45;3.98;;;;;;;15.84;80.03;99198.84;1696410;83;21400;-61
2022/09/16 06:06:01;;;;;;;7.90;4.15;;;;;;;15.96;80.14;99194.17;1693896;83;21004;-60
2022/09/16 06:08:29;;;;;;;8.25;4.53;;;;;;;16.09;79.66;99190.05;1692137;83;21546;-60
2022/09/16 06:10:56;;;;;;;7.20;4.05;;;;;;;16.10;78.95;99197.79;1699249;83;21074;-65
2022/09/16 06:13:23;;;;;;;6.65;4.15;;;;;;;16.08;78.99;99198.48;1675564;83;21084;-67
2022/09/16 06:15:50;;;;;;;6.42;3.95;;;;;;;16.12;78.91;99198.93;1692420;83;21529;-63
2022/09/16 06:18:18;;;;;;;8.53;4.60;;;;;;;16.16;78.29;99195.72;1694149;83;21340;-60
2022/09/16 06:20:45;;;;;;;7.33;4.45;;;;;;;16.22;78.49;99202.61;1686048;83;21194;-63
2022/09/16 06:23:11;;;;;;;6.80;3.98;;;;;;;16.30;78.58;99205.15;1727163;80;21039;-63
2022/09/16 06:25:38;;;;;;;13.95;6.10;;;;;;;16.38;78.57;99205.03;1684811;83;21107;-61
2022/09/16 06:28:05;;;;;;;6.08;4.35;;;;;;;16.48;78.78;99201.55;1724353;80;21086;-59
2022/09/16 06:30:32;;;;;;;7.53;4.53;;;;;;;16.51;78.17;99198.52;1731047;80;21047;-64
2022/09/16 06:32:58;;;;;;;8.40;4.70;;;;;;;16.54;78.23;99207.92;1686896;83;21126;-59
2022/09/16 06:35:25;;;;;;;6.80;4.20;;;;;;;16.61;77.93;99206.66;1702850;82;21109;-60
2022/09/16 06:37:53;;;;;;;7.08;4.55;;;;;;;16.68;77.50;99206.23;1726741;80;21102;-63
2022/09/16 06:40:19;;;;;;;7.35;5.22;;;;;;;16.69;77.10;99203.87;1730685;80;21130;-60
2022/09/16 06:42:46;;;;;;;7.33;4.20;;;;;;;16.70;77.40;99204.20;1728885;80;21632;-63
2022/09/16 06:45:13;;;;;;;8.45;5.33;;;;;;;16.72;77.03;99208.80;1732692;80;21169;-66
2022/09/16 06:47:41;;;;;;;6.17;4.42;;;;;;;16.68;76.44;99208.89;1689857;82;21465;-63
2022/09/16 06:50:09;;;;;;;7.12;4.42;;;;;;;16.72;76.86;99216.25;1704841;82;21101;-61
2022/09/16 06:52:35;;;;;;;7.30;5.33;;;;;;;16.77;76.73;99219.67;1710111;82;21090;-62
2022/09/16 06:55:02;;;;;;;8.88;5.35;;;;;;;16.82;76.91;99211.95;1709701;82;21105;-64
2022/09/16 06:57:29;;;;;;;9.23;5.45;;;;;;;16.86;76.76;99217.73;1743984;80;21250;-63
2022/09/16 06:59:56;;;;;;;7.75;5.37;;;;;;;16.89;77.26;99212.03;1747255;81;21583;-65
2022/09/16 07:02:22;;;;;;;7.47;5.62;;;;;;;16.97;76.59;99231.02;1736604;81;21052;-64
2022/09/16 07:04:49;;;;;;;8.13;5.47;;;;;;;17.00;75.71;99226.13;1746306;81;21079;-63
2022/09/16 07:07:15;;;;;;;7.62;5.50;;;;;;;17.03;75.33;99224.42;1740683;80;21104;-68
2022/09/16 07:09:43;;;;;;;8.98;6.08;;;;;;;17.09;75.41;99236.10;1742194;80;21565;-64
2022/09/16 07:12:09;;;;;;;8.70;6.47;;;;;;;17.09;75.52;99239.58;1747763;80;21063;-63
2022/09/16 07:14:36;;;;;;;8.78;6.20;;;;;;;17.14;75.97;99242.98;1745009;82;21063;-64
2022/09/16 07:17:03;;;;;;;8.83;5.83;;;;;;;17.23;75.56;99245.83;1751126;81;21060;-67
2022/09/16 07:19:29;;;;;;;8.55;6.30;;;;;;;17.29;75.55;99244.22;1736888;80;21062;-68
2022/09/16 07:21:56;;;;;;;12.37;6.72;;;;;;;17.31;75.36;99242.19;1737515;80;21282;-63
2022/09/16 07:24:23;;;;;;;9.10;6.40;;;;;;;17.26;75.12;99248.11;1732051;80;21066;-64
2022/09/16 07:26:50;;;;;;;9.88;6.33;;;;;;;17.21;75.36;99267.77;1700127;82;21103;-65
2022/09/16 07:29:17;;;;;;;8.13;5.90;;;;;;;17.21;75.25;99269.62;1711545;82;21548;-66
2022/09/16 07:31:44;;;;;;;8.80;6.70;;;;;;;17.25;75.42;99265.06;1735402;80;21522;-63
2022/09/16 07:34:11;;;;;;;8.45;5.80;;;;;;;17.30;75.03;99268.47;1730541;80;21182;-63
2022/09/16 07:36:41;;;;;;;9.68;6.60;;;;;;;17.34;75.11;99264.91;1736945;80;21098;-66
2022/09/16 07:39:09;;;;;;;10.85;7.37;;;;;;;17.35;75.42;99258.56;1741872;80;21015;-63
2022/09/16 07:41:38;;;;;;;10.93;6.42;;;;;;;17.39;75.22;99250.01;1748937;80;21098;-66
2022/09/16 07:44:06;;;;;;;8.60;6.22;;;;;;;17.41;74.87;99251.15;1742111;80;21077;-65
2022/09/16 07:46:34;;;;;;;8.93;6.28;;;;;;;17.45;74.74;99250.56;1736360;80;21945;-65
2022/09/16 07:49:02;;;;;;;8.65;7.03;;;;;;;17.50;74.32;99255.80;1741569;80;21050;-67
2022/09/16 07:51:29;;;;;;;9.80;6.97;;;;;;;17.49;74.28;99248.34;1729242;80;21082;-66
2022/09/16 07:53:59;;;;;;;8.60;6.10;;;;;;;17.48;74.48;99250.67;1731657;80;21067;-66
2022/09/16 07:56:28;;;;;;;9.90;6.62;;;;;;;17.52;74.61;99252.45;1735221;82;21015;-67
2022/09/16 07:58:55;;;;;;;8.75;6.53;;;;;;;17.58;74.54;99252.47;1689823;82;21123;-66
2022/09/16 08:01:21;;;;;;;10.32;6.40;;;;;;;17.70;74.46;99253.25;1695888;82;21063;-67
2022/09/16 08:03:48;;;;;;;13.35;7.33;;;;;;;17.78;74.21;99253.09;1696873;82;21105;-64
2022/09/16 08:06:19;;;;;;;11.88;7.20;;;;;;;17.83;73.51;99252.80;1702065;83;21374;-64
2022/09/16 08:08:45;;;;;;;10.60;6.45;;;;;;;17.85;73.19;99243.81;1691489;82;21161;-64
2022/09/16 08:11:13;;;;;;;9.48;6.45;;;;;;;17.88;73.53;99249.58;1689429;82;21238;-67
2022/09/16 08:13:42;;;;;;;9.08;6.20;;;;;;;17.92;72.93;99246.86;1737725;82;21099;-65
2022/09/16 08:16:13;;;;;;;22.20;6.85;;;;;;;18.01;72.50;99248.31;1738554;81;21645;-65
2022/09/16 08:18:41;;;;;;;11.57;6.47;;;;;;;18.15;72.69;99257.16;1730552;81;21114;-67
2022/09/16 08:21:09;;;;;;;10.63;7.20;;;;;;;18.29;72.63;99263.37;1738380;80;21051;-64
2022/09/16 08:23:37;;;;;;;13.28;6.25;;;;;;;18.43;71.60;99260.73;1738228;80;21118;-71
2022/09/16 08:26:05;;;;;;;9.65;6.08;;;;;;;18.50;70.12;99261.05;1728896;80;21641;-66
2022/09/16 08:28:31;;;;;;;10.45;6.35;;;;;;;18.54;69.65;99256.13;1700332;83;21121;-65
2022/09/16 08:30:59;;;;;;;9.30;5.85;;;;;;;18.64;69.85;99251.75;1702888;82;21098;-60
2022/09/16 08:33:25;;;;;;;9.55;6.40;;;;;;;18.74;69.83;99250.83;1731602;80;21071;-64
2022/09/16 08:36:09;;;;;;;6.95;5.62;;;;;;;18.79;69.47;99255.03;1740502;81;21116;-71
2022/09/16 08:38:36;;;;;;;9.05;5.42;;;;;;;18.74;69.00;99251.67;1699325;82;21051;-63
2022/09/16 08:41:35;;;;;;;12.13;5.42;;;;;;;18.62;68.55;99240.48;1696781;83;21137;-64
2022/09/16 08:44:28;;;;;;;7.70;5.25;;;;;;;18.60;69.33;99238.02;1696143;82;21165;-62
2022/09/16 08:47:06;;;;;;;7.70;4.75;;;;;;;18.68;69.33;99233.02;1738553;80;21025;-63
2022/09/16 08:49:43;;;;;;;7.55;4.65;;;;;;;18.82;69.97;99231.17;1736880;80;21952;-63
2022/09/16 08:52:30;;;;;;;7.25;4.50;;;;;;;18.98;68.97;99237.46;1738087;80;21098;-63
2022/09/16 08:55:05;;;;;;;7.92;4.62;;;;;;;19.12;66.90;99233.74;1745412;80;22295;-68
2022/09/16 08:57:36;;;;;;;8.10;4.30;;;;;;;19.27;67.42;99234.05;1753033;81;21066;-66
2022/09/16 09:00:11;;;;;;;5.50;3.72;;;;;;;19.48;67.49;99235.62;1747328;81;21117;-68
2022/09/16 09:02:59;;;;;;;6.37;3.92;;;;;;;19.66;64.83;99225.11;1750687;80;21497;-69
2022/09/16 09:05:39;;;;;;;6.72;4.20;;;;;;;19.82;63.94;99231.87;1748752;80;21569;-66
2022/09/16 09:08:31;;;;;;;6.28;3.95;;;;;;;19.90;63.36;99226.80;1748254;81;21107;-63
2022/09/16 09:11:20;;;;;;;5.30;3.50;;;;;;;19.92;62.54;99229.25;1750390;81;21017;-60
2022/09/16 09:14:26;;;;;;;5.53;3.62;;;;;;;19.91;62.23;99227.11;1750846;80;21118;-63
2022/09/16 09:17:30;;;;;;;6.47;3.45;;;;;;;19.88;62.74;99232.06;1680111;84;21134;-62
2022/09/16 09:20:22;;;;;;;8.20;3.80;;;;;;;19.82;62.33;99229.20;1692288;82;21553;-61
2022/09/16 09:23:18;;;;;;;8.25;3.80;;;;;;;19.88;62.55;99229.39;1713098;83;21109;-63
2022/09/16 09:25:59;;;;;;;5.08;3.25;;;;;;;20.03;61.42;99232.60;1712629;83;21129;-66
2022/09/16 09:29:04;;;;;;;5.97;3.83;;;;;;;20.08;62.11;99234.11;1674472;82;21583;-63
2022/09/16 09:31:48;;;;;;;7.00;3.35;;;;;;;20.12;60.18;99237.17;1702506;83;21147;-63
2022/09/16 09:34:54;;;;;;;5.92;3.85;;;;;;;20.17;60.89;99246.70;1695301;82;21140;-67
2022/09/16 09:37:57;;;;;;;8.98;4.78;;;;;;;20.14;58.99;99231.09;1712161;82;21061;-64
2022/09/16 09:40:33;;;;;;;7.08;3.58;;;;;;;20.12;60.26;99230.50;1710535;83;21069;-62
2022/09/16 09:43:21;;;;;;;6.62;3.55;;;;;;;20.09;60.47;99231.77;1700399;82;21089;-65
2022/09/16 09:45:56;;;;;;;7.45;3.42;;;;;;;20.10;60.37;99232.05;1696184;82;21253;-66
2022/09/16 09:48:37;;;;;;;7.90;3.37;;;;;;;20.15;60.15;99238.09;1708919;82;21074;-64
2022/09/16 09:51:24;;;;;;;7.12;3.62;;;;;;;20.25;57.70;99244.31;1700878;82;21521;-68
2022/09/16 09:53:55;;;;;;;6.12;3.20;;;;;;;20.32;57.29;99239.74;1697283;82;21583;-64
2022/09/16 09:56:33;;;;;;;6.92;3.12;;;;;;;20.37;57.08;99242.59;1683928;83;21141;-61
2022/09/16 09:59:14;;;;;;;7.05;3.42;;;;;;;20.41;56.81;99237.94;1723576;81;21139;-64
2022/09/16 10:01:40;;;;;;;6.15;3.10;;;;;;;20.50;56.99;99242.50;1741424;80;21055;-67
2022/09/16 10:04:15;;;;;;;6.40;3.25;;;;;;;20.58;55.71;99244.92;1730089;82;21019;-67
2022/09/16 10:06:41;;;;;;;6.05;3.30;;;;;;;20.62;54.85;99240.48;1729629;81;21058;-63
2022/09/16 10:09:11;;;;;;;6.58;3.00;;;;;;;20.69;55.45;99247.97;1730299;80;21558;-63
2022/09/16 10:11:53;;;;;;;5.70;3.02;;;;;;;20.77;54.72;99251.18;1738417;80;21057;-65
2022/09/16 10:14:34;;;;;;;7.40;3.10;;;;;;;20.82;53.50;99250.54;1688801;82;21071;-68
2022/09/16 10:17:03;;;;;;;6.40;2.87;;;;;;;20.87;53.11;99240.53;1686557;84;22306;-68
2022/09/16 10:19:35;;;;;;;7.10;3.20;;;;;;;20.92;52.91;99241.51;1692269;84;21025;-61
2022/09/16 10:22:22;;;;;;;5.95;2.92;;;;;;;20.93;51.85;99243.16;1656131;83;21090;-72
2022/09/16 10:24:59;;;;;;;6.20;3.05;;;;;;;20.92;52.10;99253.54;1726100;80;21084;-64
2022/09/16 10:27:34;;;;;;;6.28;3.77;;;;;;;20.91;51.72;99249.25;1739146;81;21049;-67
2022/09/16 10:30:14;;;;;;;6.58;3.37;;;;;;;20.96;52.79;99243.22;1728829;80;21480;-62
2022/09/16 10:32:57;;;;;;;7.25;3.50;;;;;;;21.06;52.49;99256.11;1721160;82;21051;-66
2022/09/16 10:35:26;;;;;;;7.15;3.52;;;;;;;21.11;51.99;99243.70;1732215;80;21035;-69
2022/09/16 10:38:01;;;;;;;7.55;4.00;;;;;;;21.13;52.06;99251.02;1725337;80;21740;-64
2022/09/16 10:40:27;;;;;;;6.53;3.27;;;;;;;21.13;52.48;99264.88;1712293;80;21110;-62
2022/09/16 10:42:58;;;;;;;7.15;3.85;;;;;;;21.01;52.76;99257.28;1722623;82;21110;-60
2022/09/16 10:45:29;;;;;;;5.40;3.22;;;;;;;20.93;53.35;99261.87;1725804;80;21063;-65
2022/09/16 10:48:02;;;;;;;7.70;3.80;;;;;;;20.89;51.85;99246.48;1725880;81;20995;-67
2022/09/16 10:50:29;;;;;;;8.95;3.00;;;;;;;20.84;51.80;99261.83;1736025;81;21071;-73
2022/09/16 10:52:55;;;;;;;7.85;3.50;;;;;;;20.81;52.20;99251.56;1732708;80;21177;-71
2022/09/16 10:55:28;;;;;;;7.10;3.20;;;;;;;20.89;52.93;99257.17;1737108;81;21482;-66
2022/09/16 10:58:16;;;;;;;5.50;2.83;;;;;;;21.02;53.08;99258.93;1748488;80;21489;-69
2022/09/16 11:01:19;;;;;;;6.22;2.98;;;;;;;21.08;51.85;99252.69;1703583;82;21055;-61
2022/09/16 11:04:00;;;;;;;6.65;3.45;;;;;;;21.07;52.15;99249.73;1699218;82;21133;-66
2022/09/16 11:06:55;;;;;;;6.75;3.77;;;;;;;21.07;51.94;99250.54;1709895;82;21100;-64
2022/09/16 11:09:42;;;;;;;12.33;3.75;;;;;;;21.12;52.13;99248.55;1716931;82;21006;-62
2022/09/16 11:12:35;;;;;;;6.87;3.37;;;;;;;21.22;51.58;99254.22;1716339;82;21089;-63
2022/09/16 11:15:17;;;;;;;7.92;3.08;;;;;;;21.26;52.07;99246.03;1713326;82;21127;-63
2022/09/16 11:17:58;;;;;;;9.05;4.17;;;;;;;21.35;52.26;99245.26;1712633;83;21119;-63
2022/09/16 11:21:02;;;;;;;4.95;2.75;;;;;;;21.48;51.13;99247.80;1714565;82;20994;-71
2022/09/16 11:23:40;;;;;;;5.92;2.75;;;;;;;21.63;49.39;99250.12;1717697;82;21153;-73
2022/09/16 11:26:35;;;;;;;6.33;2.67;;;;;;;21.74;48.64;99242.38;1649245;83;21113;-70
2022/09/16 11:29:13;;;;;;;6.50;3.43;;;;;;;21.82;48.61;99246.09;1693830;82;21010;-67
2022/09/16 11:32:19;;;;;;;5.87;3.25;;;;;;;21.90;49.06;99248.47;1712455;83;21203;-68
2022/09/16 11:35:23;;;;;;;7.33;2.95;;;;;;;21.96;47.98;99248.92;1709024;82;21011;-62
2022/09/16 11:38:19;;;;;;;5.95;3.30;;;;;;;21.98;46.50;99256.20;1703919;82;21690;-63
2022/09/16 11:41:10;;;;;;;5.80;2.92;;;;;;;21.96;47.28;99260.97;1715175;82;21041;-60
2022/09/16 11:44:02;;;;;;;5.15;2.52;;;;;;;21.95;48.80;99251.30;1717021;82;21544;-60
2022/09/16 11:46:49;;;;;;;6.03;3.15;;;;;;;22.01;48.32;99242.37;1663094;86;21992;-63
2022/09/16 11:49:30;;;;;;;6.33;2.90;;;;;;;22.07;46.33;99244.66;1686450;83;21107;-64
2022/09/16 11:52:39;;;;;;;6.30;3.00;;;;;;;22.03;46.92;99246.97;1681602;83;21060;-63
2022/09/16 11:55:25;;;;;;;5.53;2.87;;;;;;;21.98;47.06;99241.47;1691284;83;21031;-65
2022/09/16 11:57:57;;;;;;;;;;;;;;;21.92;47.77;99227.64;1686911;82;21146;-61
2022/09/16 12:00:24;;;;;;;6.40;3.30;;;;;;;21.94;47.54;99244.82;1694739;84;21059;-59
2022/09/16 12:03:02;;;;;;;5.75;3.37;;;;;;;21.92;47.71;99243.70;1702397;83;21020;-62
2022/09/16 12:05:50;;;;;;;7.70;3.70;;;;;;;21.93;47.84;99247.22;1700427;83;21066;-64
2022/09/16 12:09:28;;;;;;;5.22;3.05;;;;;;;22.00;48.64;99254.11;1769658;79;23494;-62
2022/09/16 12:12:04;;;;;;;5.20;3.17;;;;;;;22.10;47.65;99250.91;1744313;80;21140;-62
2022/09/16 12:14:39;;;;;;;6.50;3.30;;;;;;;22.11;47.20;99255.73;1739725;80;21093;-62